Saint-Jovite, Canada
Current Conditions -  °F | °C
As of 6:00 PM on Friday 19 Dec 2014 (Local Time) from CYMX Reporting Station
Clear Clear  
Wind Chill:   Ceiling: Unl
Heat Index: 18°   Visibility: 25mi
Dew Point: 12°   Wind: 7mph
Humidity: 79%   Direction: 250°WSW
Pressure: 30.19"   Gusts: NA
Location:  46.12°N, 74.59°W
Report Text: CYMX 192300Z 25006KT 210V280 25SM SKC M08/M11 A3019 RMK PRESRR SLP228
Loading
Personal Weather Stations






























Interactive Weather Map New forecast layout! Learn more

10-Day Weather Forecast

Advertisements
Track Severe Weather on mobile